Have a Safe July 4th! 

Flight Track Log - Related Links

Times and Time Zones

All times are in EDT time to prevent confusion due to time zone crossing. See the ASQ5374 flight status page for this flight to view local times or setup timezone preferences in your user account.

Time Position Orientation Groundspeed Altitude Reporting Facility
EDT Latitude Longitude Course Direction KTS MPH feet Rate Location/Type
Sun 09:41:35 AM 33.6500 -84.5000 284° West 215 247 2,900  Level Atlanta TRACON
Sun 09:42:35 AM 33.6667 -84.5833 284° West 263 303 5,400 2,550 Climbing Atlanta TRACON
Sun 09:43:35 AM 33.6833 -84.6667 284° West 275 316 8,000 2,287 Climbing Atlanta TRACON
Sun 09:45:57 AM 33.6892 -84.8703 272° West 280 322 13,100 1,871 Climbing Atlanta Center
Sun 09:46:57 AM 33.6758 -84.9750 261° West 297 342 14,300 1,250 Climbing Atlanta Center
Sun 09:47:57 AM 33.6644 -85.0872 263° West 325 374 15,600 1,300 Climbing Atlanta Center
Sun 09:48:57 AM 33.6511 -85.2017 262° West 348 400 16,900 1,500 Climbing Atlanta Center
Sun 09:49:57 AM 33.6500 -85.3164 269° West 356 410 18,600 1,550 Climbing Atlanta Center
Sun 09:50:57 AM 33.6528 -85.4364 272° West 356 410 20,000 1,300 Climbing Atlanta Center
Sun 09:51:57 AM 33.6553 -85.5661 271° West 356 410 21,200 1,200 Climbing Atlanta Center
Sun 09:52:57 AM 33.6558 -85.6858 270° West 356 410 22,400 1,200 Climbing Atlanta Center
Sun 09:53:57 AM 33.6606 -85.8058 273° West 362 417 23,600 1,050 Climbing Atlanta Center
Sun 09:54:57 AM 33.6589 -85.9081 269° West 350 403 24,500 900 Climbing Atlanta Center
Sun 09:55:57 AM 33.6592 -86.0253 270° West 350 403 25,400 900 Climbing Atlanta Center
Sun 09:56:57 AM 33.6636 -86.1478 273° West 355 409 26,300 850 Climbing Atlanta Center
Sun 09:57:57 AM 33.6633 -86.2725 270° West 366 421 27,100 800 Climbing Atlanta Center
Sun 09:58:57 AM 33.6633 -86.3925 270° West 366 421 27,900 450 Climbing Atlanta Center
Sun 09:59:57 AM 33.6669 -86.5172 272° West 366 421 28,000 50 Climbing Atlanta Center
Sun 10:00:57 AM 33.6664 -86.6469 270° West 376 433 28,000  Level Atlanta Center
Sun 10:01:57 AM 33.6678 -86.7794 271° West 384 442 28,000  Level Atlanta Center
Sun 10:02:57 AM 33.6669 -86.9117 270° West 389 448 28,000  Level Atlanta Center
Sun 10:03:57 AM 33.6533 -87.0433 263° West 394 453 28,000  Level Atlanta Center
Sun 10:04:57 AM 33.6375 -87.1778 262° West 399 459 28,000  Level Atlanta Center
Sun 10:07:14 AM 33.6011 -87.4942 262° West 410 472 28,000  Level Memphis Center
Sun 10:08:14 AM 33.5875 -87.6267 263° West 410 472 28,000  Level Memphis Center
Sun 10:09:14 AM 33.5736 -87.7567 263° West 410 472 28,000  Level Memphis Center
Sun 10:10:14 AM 33.5575 -87.8894 262° West 410 472 28,000  Level Memphis Center
Sun 10:11:14 AM 33.5433 -88.0219 263° West 410 472 28,000  Level Memphis Center
Sun 10:12:14 AM 33.5269 -88.1494 261° West 410 472 28,000  Level Memphis Center
Sun 10:13:14 AM 33.5164 -88.2667 264° West 410 472 28,000  Level Memphis Center
Sun 10:14:14 AM 33.4997 -88.3917 261° West 405 466 28,000  Level Memphis Center
Sun 10:15:14 AM 33.4872 -88.5364 264° West 400 460 28,000  Level Memphis Center
Sun 10:16:14 AM 33.4850 -88.6636 269° West 405 466 28,000  Level Memphis Center
Sun 10:17:14 AM 33.4844 -88.7956 270° West 400 460 28,000  Level Memphis Center
Sun 10:18:14 AM 33.4819 -88.9250 269° West 400 460 28,000  Level Memphis Center
Sun 10:19:14 AM 33.4833 -89.0594 271° West 400 460 28,000  Level Memphis Center
Sun 10:20:14 AM 33.4783 -89.1917 267° West 400 460 28,000  Level Memphis Center
Sun 10:21:14 AM 33.4775 -89.3211 270° West 400 460 28,000  Level Memphis Center
Sun 10:22:14 AM 33.4764 -89.4581 269° West 405 466 28,000  Level Memphis Center
Sun 10:23:14 AM 33.4753 -89.5925 269° West 405 466 28,000  Level Memphis Center
Sun 10:24:14 AM 33.4719 -89.7297 268° West 405 466 28,000  Level Memphis Center
Sun 10:25:14 AM 33.4683 -89.8667 268° West 405 466 28,000  Level Memphis Center
Sun 10:26:14 AM 33.4689 -89.9911 270° West 410 472 28,000  Level Memphis Center
Sun 10:27:14 AM 33.4669 -90.1306 269° West 415 478 28,000  Level Memphis Center
Sun 10:28:14 AM 33.4631 -90.2700 268° West 420 483 28,000  Level Memphis Center
Sun 10:29:14 AM 33.4400 -90.4044 258° West 420 483 28,000  Level Memphis Center
Sun 10:30:14 AM 33.4067 -90.5414 254° West 425 489 28,000  Level Memphis Center
Sun 10:31:14 AM 33.3689 -90.6781 252° West 435 501 28,000  Level Memphis Center
Sun 10:32:14 AM 33.3286 -90.8097 250° West 440 506 28,000  Level Memphis Center
Sun 10:33:14 AM 33.2928 -90.9439 252° West 435 501 28,000  Level Memphis Center
Sun 10:34:14 AM 33.2544 -91.0778 251° West 430 495 28,000  Level Memphis Center
Sun 10:35:14 AM 33.2161 -91.2114 251° West 430 495 28,000 -109 Level Memphis Center
Sun 10:36:59 AM 33.1494 -91.4567 252° West 430 495 27,700 -727 Descending Fort Worth Center
Sun 10:37:59 AM 33.1100 -91.5981 252° West 437 503 26,000 -1,650 Descending Fort Worth Center
Sun 10:38:59 AM 33.0703 -91.7322 251° West 445 512 24,400 -1,000 Descending Fort Worth Center
Sun 10:39:59 AM 33.0347 -91.8681 253° West 445 512 24,000 -200 Descending Fort Worth Center
Sun 10:40:59 AM 32.9903 -92.0022 248° West 438 504 24,000  Level Fort Worth Center
Sun 10:41:59 AM 32.9561 -92.1281 252° West 428 493 24,000  Level Fort Worth Center
Sun 10:42:59 AM 32.9197 -92.2589 252° West 423 487 24,000 -200 Level Fort Worth Center
Sun 10:43:59 AM 32.8833 -92.3894 252° West 418 481 23,600 -1,350 Descending Fort Worth Center
Sun 10:44:59 AM 32.8425 -92.5203 250° West 418 481 21,300 -2,200 Descending Fort Worth Center
Sun 10:45:59 AM 32.8019 -92.6561 250° West 424 488 19,200 -2,150 Descending Fort Worth Center
Sun 10:46:59 AM 32.7631 -92.7867 251° West 424 488 17,000 -2,150 Descending Fort Worth Center
Sun 10:47:59 AM 32.7192 -92.9047 246° West 412 474 14,900 -2,150 Descending Fort Worth Center
Sun 10:48:59 AM 32.6708 -93.0158 243° Southwest 381 438 12,700 -1,900 Descending Fort Worth Center
Sun 10:49:59 AM 32.6367 -93.1064 246° West 354 407 11,100 -1,550 Descending Fort Worth Center
Sun 10:50:59 AM 32.5811 -93.1928 233° Southwest 318 366 9,600 -1,300 Descending Fort Worth Center
Sun 10:51:59 AM 32.5131 -93.2231 201° Southwest 291 335 8,500 -1,200 Descending Fort Worth Center
Sun 10:52:59 AM 32.4700 -93.3064 239° Southwest 277 319 7,200 -1,050 Descending Fort Worth Center
Sun 10:53:59 AM 32.4367 -93.3742 240° Southwest 272 313 6,400 -900 Descending Fort Worth Center
Sun 10:54:59 AM 32.4186 -93.4636 257° West 262 302 5,400 -900 Descending Fort Worth Center
Sun 10:55:59 AM 32.4083 -93.5378 261° West 257 296 4,600 -1,000 Descending Fort Worth Center
Sun 10:56:59 AM 32.3944 -93.6294 260° West 257 296 3,400 -1,150 Descending Fort Worth Center
Sun 10:57:59 AM 32.3822 -93.7111 260° West 257 296 2,300 -850 Descending Fort Worth Center
Sun 10:58:59 AM 32.3861 -93.7700 274° West 207 238 1,700 -750 Descending Fort Worth Center
Sun 10:59:59 AM 32.4142 -93.8008 317° Northwest 148 170 800 -650 Descending Fort Worth Center
Sun 11:00:59 AM 32.4358 -93.8319 310° West 136 157 400 -400 Descending Fort Worth Center

Login

Don't have an account? Register now (free) for customized features, flight alerts, and more!